sensor_id;sensor_type;location;lat;lon;timestamp;pressure;altitude;pressure_sealevel;temperature;humidity
16544;BME280;8384;47.996;7.786;2023-03-04T00:00:51;99347.59;;;0.42;97.17
16544;BME280;8384;47.996;7.786;2023-03-04T00:03:16;99336.63;;;0.28;96.65
16544;BME280;8384;47.996;7.786;2023-03-04T00:05:41;99333.94;;;0.28;96.69
16544;BME280;8384;47.996;7.786;2023-03-04T00:08:07;99303.78;;;-0.05;96.50
16544;BME280;8384;47.996;7.786;2023-03-04T00:10:32;99349.22;;;0.28;96.19
16544;BME280;8384;47.996;7.786;2023-03-04T00:12:57;99352.44;;;0.23;97.17
16544;BME280;8384;47.996;7.786;2023-03-04T00:15:22;99332.63;;;0.24;96.95
16544;BME280;8384;47.996;7.786;2023-03-04T00:17:48;99337.03;;;0.17;96.08
16544;BME280;8384;47.996;7.786;2023-03-04T00:20:13;99331.53;;;0.10;96.31
16544;BME280;8384;47.996;7.786;2023-03-04T00:22:39;99352.34;;;0.17;96.45
16544;BME280;8384;47.996;7.786;2023-03-04T00:25:04;99333.44;;;0.02;96.62
16544;BME280;8384;47.996;7.786;2023-03-04T00:27:30;99341.63;;;0.08;95.97
16544;BME280;8384;47.996;7.786;2023-03-04T00:29:55;99326.28;;;-0.06;96.09
16544;BME280;8384;47.996;7.786;2023-03-04T00:32:21;99343.13;;;-0.12;96.61
16544;BME280;8384;47.996;7.786;2023-03-04T00:34:46;99341.91;;;-0.10;96.78
16544;BME280;8384;47.996;7.786;2023-03-04T00:37:11;99366.38;;;0.04;96.84
16544;BME280;8384;47.996;7.786;2023-03-04T00:39:37;99339.94;;;-0.16;96.30
16544;BME280;8384;47.996;7.786;2023-03-04T00:42:02;99340.31;;;-0.19;96.52
16544;BME280;8384;47.996;7.786;2023-03-04T00:44:27;99318.50;;;-0.24;95.94
16544;BME280;8384;47.996;7.786;2023-03-04T00:46:53;99355.31;;;-0.02;95.32
16544;BME280;8384;47.996;7.786;2023-03-04T00:49:18;99357.16;;;-0.02;95.52
16544;BME280;8384;47.996;7.786;2023-03-04T00:51:43;99363.69;;;0.04;95.14
16544;BME280;8384;47.996;7.786;2023-03-04T00:54:08;99348.50;;;-0.12;95.69
16544;BME280;8384;47.996;7.786;2023-03-04T00:56:34;99342.47;;;-0.23;96.16
16544;BME280;8384;47.996;7.786;2023-03-04T00:58:59;99366.59;;;-0.06;96.51
16544;BME280;8384;47.996;7.786;2023-03-04T01:01:24;99337.34;;;-0.33;96.73
16544;BME280;8384;47.996;7.786;2023-03-04T01:03:49;99349.50;;;-0.45;97.74
16544;BME280;8384;47.996;7.786;2023-03-04T01:06:15;99332.53;;;-0.46;98.29
16544;BME280;8384;47.996;7.786;2023-03-04T01:08:40;99352.13;;;-0.37;98.66
16544;BME280;8384;47.996;7.786;2023-03-04T01:11:06;99349.00;;;-0.49;98.99
16544;BME280;8384;47.996;7.786;2023-03-04T01:13:31;99328.59;;;-0.66;98.95
16544;BME280;8384;47.996;7.786;2023-03-04T01:15:57;99336.09;;;-0.53;99.21
16544;BME280;8384;47.996;7.786;2023-03-04T01:18:22;99331.25;;;-0.58;98.53
16544;BME280;8384;47.996;7.786;2023-03-04T01:20:48;99352.84;;;-0.43;98.47
16544;BME280;8384;47.996;7.786;2023-03-04T01:23:13;99315.50;;;-0.61;97.77
16544;BME280;8384;47.996;7.786;2023-03-04T01:25:39;99298.28;;;-0.75;98.04
16544;BME280;8384;47.996;7.786;2023-03-04T01:28:05;99332.09;;;-0.57;97.71
16544;BME280;8384;47.996;7.786;2023-03-04T01:30:30;99277.56;;;-1.06;98.43
16544;BME280;8384;47.996;7.786;2023-03-04T01:32:56;99342.84;;;-0.66;99.49
16544;BME280;8384;47.996;7.786;2023-03-04T01:35:21;99338.22;;;-0.80;100.00
16544;BME280;8384;47.996;7.786;2023-03-04T01:37:47;99320.44;;;-0.81;100.00
16544;BME280;8384;47.996;7.786;2023-03-04T01:40:12;99331.97;;;-0.72;99.57
16544;BME280;8384;47.996;7.786;2023-03-04T01:42:38;99315.59;;;-0.86;99.59
16544;BME280;8384;47.996;7.786;2023-03-04T01:45:04;99325.28;;;-0.77;98.54
16544;BME280;8384;47.996;7.786;2023-03-04T01:47:32;99335.16;;;-0.69;98.56
16544;BME280;8384;47.996;7.786;2023-03-04T01:50:00;99264.53;;;-1.17;98.00
16544;BME280;8384;47.996;7.786;2023-03-04T01:52:27;99324.47;;;-0.85;98.09
16544;BME280;8384;47.996;7.786;2023-03-04T01:54:53;99324.66;;;-0.87;98.40
16544;BME280;8384;47.996;7.786;2023-03-04T01:57:21;99327.69;;;-0.90;98.55
16544;BME280;8384;47.996;7.786;2023-03-04T02:00:17;99312.25;;;-0.96;98.70
16544;BME280;8384;47.996;7.786;2023-03-04T02:02:44;99337.94;;;-0.94;98.24
16544;BME280;8384;47.996;7.786;2023-03-04T02:05:09;99320.50;;;-0.98;98.91
16544;BME280;8384;47.996;7.786;2023-03-04T02:07:35;99294.19;;;-1.11;99.22
16544;BME280;8384;47.996;7.786;2023-03-04T02:10:01;99266.91;;;-1.31;98.39
16544;BME280;8384;47.996;7.786;2023-03-04T02:12:26;99326.00;;;-0.91;98.20
16544;BME280;8384;47.996;7.786;2023-03-04T02:14:51;99304.41;;;-1.14;98.01
16544;BME280;8384;47.996;7.786;2023-03-04T02:17:23;99300.91;;;-1.15;97.94
16544;BME280;8384;47.996;7.786;2023-03-04T02:19:55;99285.84;;;-1.24;98.06
16544;BME280;8384;47.996;7.786;2023-03-04T02:22:24;99289.38;;;-1.24;98.04
16544;BME280;8384;47.996;7.786;2023-03-04T02:24:54;99303.22;;;-1.03;97.88
16544;BME280;8384;47.996;7.786;2023-03-04T02:27:20;99302.75;;;-1.15;97.69
16544;BME280;8384;47.996;7.786;2023-03-04T02:29:46;99302.44;;;-1.29;98.14
16544;BME280;8384;47.996;7.786;2023-03-04T02:32:11;99323.38;;;-1.16;98.36
16544;BME280;8384;47.996;7.786;2023-03-04T02:34:43;99323.38;;;-1.16;98.09
16544;BME280;8384;47.996;7.786;2023-03-04T02:37:09;99313.81;;;-1.18;97.98
16544;BME280;8384;47.996;7.786;2023-03-04T02:39:40;99319.84;;;-1.16;98.66
16544;BME280;8384;47.996;7.786;2023-03-04T02:42:06;99323.06;;;-1.21;98.38
16544;BME280;8384;47.996;7.786;2023-03-04T02:44:34;99312.38;;;-1.38;98.23
16544;BME280;8384;47.996;7.786;2023-03-04T02:47:00;99323.25;;;-1.23;99.07
16544;BME280;8384;47.996;7.786;2023-03-04T02:49:27;99331.09;;;-1.29;98.63
16544;BME280;8384;47.996;7.786;2023-03-04T02:52:08;99312.38;;;-1.46;98.84
16544;BME280;8384;47.996;7.786;2023-03-04T02:54:35;99327.13;;;-1.33;99.25
16544;BME280;8384;47.996;7.786;2023-03-04T02:57:05;99328.78;;;-1.32;99.23
16544;BME280;8384;47.996;7.786;2023-03-04T02:59:30;99291.91;;;-1.55;99.27
16544;BME280;8384;47.996;7.786;2023-03-04T03:01:56;99339.66;;;-1.34;99.23
16544;BME280;8384;47.996;7.786;2023-03-04T03:04:22;99322.75;;;-1.43;99.20
16544;BME280;8384;47.996;7.786;2023-03-04T03:06:48;99304.31;;;-1.54;100.00
16544;BME280;8384;47.996;7.786;2023-03-04T03:09:13;99298.97;;;-1.62;100.00
16544;BME280;8384;47.996;7.786;2023-03-04T03:11:38;99292.59;;;-1.78;100.00
16544;BME280;8384;47.996;7.786;2023-03-04T03:14:04;99312.38;;;-1.62;100.00
16544;BME280;8384;47.996;7.786;2023-03-04T03:16:29;99309.72;;;-1.62;100.00
16544;BME280;8384;47.996;7.786;2023-03-04T03:18:55;99308.84;;;-1.63;100.00
16544;BME280;8384;47.996;7.786;2023-03-04T03:21:20;99326.94;;;-1.57;100.00
16544;BME280;8384;47.996;7.786;2023-03-04T03:23:45;99325.94;;;-1.64;100.00
16544;BME280;8384;47.996;7.786;2023-03-04T03:26:11;99285.06;;;-2.07;100.00
16544;BME280;8384;47.996;7.786;2023-03-04T03:28:36;99313.53;;;-1.90;100.00
16544;BME280;8384;47.996;7.786;2023-03-04T03:31:01;99324.94;;;-1.79;100.00
16544;BME280;8384;47.996;7.786;2023-03-04T03:33:27;99321.75;;;-1.75;100.00
16544;BME280;8384;47.996;7.786;2023-03-04T03:35:52;99323.09;;;-1.71;100.00
16544;BME280;8384;47.996;7.786;2023-03-04T03:38:17;99322.59;;;-1.66;100.00
16544;BME280;8384;47.996;7.786;2023-03-04T03:40:43;99320.06;;;-1.76;100.00
16544;BME280;8384;47.996;7.786;2023-03-04T03:43:08;99324.63;;;-1.76;100.00
16544;BME280;8384;47.996;7.786;2023-03-04T03:45:33;99325.25;;;-1.91;100.00
16544;BME280;8384;47.996;7.786;2023-03-04T03:47:59;99298.78;;;-2.11;100.00
16544;BME280;8384;47.996;7.786;2023-03-04T03:50:24;99320.09;;;-1.92;100.00
16544;BME280;8384;47.996;7.786;2023-03-04T03:52:49;99326.44;;;-1.93;100.00
16544;BME280;8384;47.996;7.786;2023-03-04T03:55:15;99276.19;;;-2.08;100.00
16544;BME280;8384;47.996;7.786;2023-03-04T03:57:40;99321.56;;;-1.98;99.98
16544;BME280;8384;47.996;7.786;2023-03-04T04:00:06;99314.88;;;-2.02;100.00
16544;BME280;8384;47.996;7.786;2023-03-04T04:02:32;99328.75;;;-2.15;100.00
16544;BME280;8384;47.996;7.786;2023-03-04T04:04:57;99328.56;;;-2.14;100.00
16544;BME280;8384;47.996;7.786;2023-03-04T04:07:22;99311.84;;;-2.16;100.00
16544;BME280;8384;47.996;7.786;2023-03-04T04:09:47;99322.41;;;-2.14;100.00
16544;BME280;8384;47.996;7.786;2023-03-04T04:12:14;99333.78;;;-2.12;100.00
16544;BME280;8384;47.996;7.786;2023-03-04T04:14:40;99317.84;;;-2.30;100.00
16544;BME280;8384;47.996;7.786;2023-03-04T04:17:06;99330.63;;;-1.91;100.00
16544;BME280;8384;47.996;7.786;2023-03-04T04:19:31;99317.91;;;-1.81;100.00
16544;BME280;8384;47.996;7.786;2023-03-04T04:21:57;99333.16;;;-1.48;99.39
16544;BME280;8384;47.996;7.786;2023-03-04T04:24:22;99329.94;;;-1.43;98.34
16544;BME280;8384;47.996;7.786;2023-03-04T04:26:47;99336.69;;;-1.47;98.53
16544;BME280;8384;47.996;7.786;2023-03-04T04:29:13;99343.72;;;-1.46;98.81
16544;BME280;8384;47.996;7.786;2023-03-04T04:31:39;99331.66;;;-1.59;98.94
16544;BME280;8384;47.996;7.786;2023-03-04T04:34:04;99308.19;;;-1.82;99.07
16544;BME280;8384;47.996;7.786;2023-03-04T04:36:29;99337.16;;;-1.77;99.97
16544;BME280;8384;47.996;7.786;2023-03-04T04:38:55;99304.16;;;-1.86;100.00
16544;BME280;8384;47.996;7.786;2023-03-04T04:41:24;99337.50;;;-1.55;100.00
16544;BME280;8384;47.996;7.786;2023-03-04T04:43:50;99303.34;;;-1.61;99.13
16544;BME280;8384;47.996;7.786;2023-03-04T04:46:16;99342.88;;;-1.72;99.01
16544;BME280;8384;47.996;7.786;2023-03-04T04:48:42;99320.22;;;-1.94;99.15
16544;BME280;8384;47.996;7.786;2023-03-04T04:51:07;99341.31;;;-2.07;99.54
16544;BME280;8384;47.996;7.786;2023-03-04T04:53:33;99321.91;;;-2.01;99.99
16544;BME280;8384;47.996;7.786;2023-03-04T04:55:58;99342.84;;;-1.97;100.00
16544;BME280;8384;47.996;7.786;2023-03-04T04:58:24;99332.78;;;-2.03;99.93
16544;BME280;8384;47.996;7.786;2023-03-04T05:00:49;99324.84;;;-2.37;99.52
16544;BME280;8384;47.996;7.786;2023-03-04T05:03:15;99307.09;;;-2.38;99.59
16544;BME280;8384;47.996;7.786;2023-03-04T05:05:41;99350.84;;;-2.21;99.85
16544;BME280;8384;47.996;7.786;2023-03-04T05:08:06;99339.25;;;-2.30;100.00
16544;BME280;8384;47.996;7.786;2023-03-04T05:10:31;99297.81;;;-2.69;100.00
16544;BME280;8384;47.996;7.786;2023-03-04T05:12:56;99332.03;;;-2.46;100.00
16544;BME280;8384;47.996;7.786;2023-03-04T05:15:22;99318.56;;;-2.63;100.00
16544;BME280;8384;47.996;7.786;2023-03-04T05:17:47;99331.63;;;-2.60;100.00
16544;BME280;8384;47.996;7.786;2023-03-04T05:20:12;99313.38;;;-2.64;100.00
16544;BME280;8384;47.996;7.786;2023-03-04T05:22:38;99330.50;;;-2.49;100.00
16544;BME280;8384;47.996;7.786;2023-03-04T05:25:03;99324.13;;;-2.48;100.00
16544;BME280;8384;47.996;7.786;2023-03-04T05:27:29;99321.91;;;-1.85;99.76
16544;BME280;8384;47.996;7.786;2023-03-04T05:29:54;99340.03;;;-1.54;96.94
16544;BME280;8384;47.996;7.786;2023-03-04T05:32:23;99336.69;;;-1.72;98.30
16544;BME280;8384;47.996;7.786;2023-03-04T05:34:49;99350.25;;;-1.66;98.02
16544;BME280;8384;47.996;7.786;2023-03-04T05:37:14;99345.53;;;-1.72;99.03
16544;BME280;8384;47.996;7.786;2023-03-04T05:39:39;99328.78;;;-1.74;98.93
16544;BME280;8384;47.996;7.786;2023-03-04T05:42:04;99346.72;;;-1.58;99.08
16544;BME280;8384;47.996;7.786;2023-03-04T05:44:30;99342.88;;;-1.63;98.53
16544;BME280;8384;47.996;7.786;2023-03-04T05:46:55;99343.84;;;-1.81;98.87
16544;BME280;8384;47.996;7.786;2023-03-04T05:49:20;99327.09;;;-1.83;99.12
16544;BME280;8384;47.996;7.786;2023-03-04T05:51:45;99344.88;;;-1.66;98.19
16544;BME280;8384;47.996;7.786;2023-03-04T05:54:11;99333.31;;;-1.83;98.58
16544;BME280;8384;47.996;7.786;2023-03-04T05:56:36;99327.28;;;-1.76;98.91
16544;BME280;8384;47.996;7.786;2023-03-04T05:59:01;99332.28;;;-1.98;99.68
16544;BME280;8384;47.996;7.786;2023-03-04T06:01:26;99357.88;;;-2.04;100.00
16544;BME280;8384;47.996;7.786;2023-03-04T06:03:52;99352.84;;;-2.23;100.00
16544;BME280;8384;47.996;7.786;2023-03-04T06:06:17;99353.16;;;-2.69;100.00
16544;BME280;8384;47.996;7.786;2023-03-04T06:08:42;99338.72;;;-2.85;100.00
16544;BME280;8384;47.996;7.786;2023-03-04T06:11:08;99341.53;;;-2.95;100.00
16544;BME280;8384;47.996;7.786;2023-03-04T06:13:33;99337.34;;;-2.89;100.00
16544;BME280;8384;47.996;7.786;2023-03-04T06:15:59;99366.66;;;-2.79;100.00
16544;BME280;8384;47.996;7.786;2023-03-04T06:18:26;99361.00;;;-2.76;100.00
16544;BME280;8384;47.996;7.786;2023-03-04T06:20:57;99366.78;;;-2.89;100.00
16544;BME280;8384;47.996;7.786;2023-03-04T06:23:23;99375.44;;;-2.95;100.00
16544;BME280;8384;47.996;7.786;2023-03-04T06:25:56;99379.88;;;-2.78;100.00
16544;BME280;8384;47.996;7.786;2023-03-04T06:28:22;99377.88;;;-2.76;100.00
16544;BME280;8384;47.996;7.786;2023-03-04T06:30:50;99357.28;;;-2.83;100.00
16544;BME280;8384;47.996;7.786;2023-03-04T06:33:15;99381.78;;;-2.27;100.00
16544;BME280;8384;47.996;7.786;2023-03-04T06:35:41;99385.69;;;-2.13;100.00
16544;BME280;8384;47.996;7.786;2023-03-04T06:38:06;99388.22;;;-1.95;100.00
16544;BME280;8384;47.996;7.786;2023-03-04T06:40:31;99381.47;;;-2.16;100.00
16544;BME280;8384;47.996;7.786;2023-03-04T06:42:56;99390.22;;;-1.97;100.00
16544;BME280;8384;47.996;7.786;2023-03-04T06:45:22;99370.94;;;-2.09;100.00
16544;BME280;8384;47.996;7.786;2023-03-04T06:47:47;99393.41;;;-2.02;100.00
16544;BME280;8384;47.996;7.786;2023-03-04T06:50:12;99375.97;;;-2.14;100.00
16544;BME280;8384;47.996;7.786;2023-03-04T06:52:38;99403.28;;;-1.94;100.00
16544;BME280;8384;47.996;7.786;2023-03-04T06:55:04;99398.09;;;-1.96;100.00
16544;BME280;8384;47.996;7.786;2023-03-04T06:57:30;99395.25;;;-1.94;100.00
16544;BME280;8384;47.996;7.786;2023-03-04T06:59:55;99404.50;;;-1.88;100.00
16544;BME280;8384;47.996;7.786;2023-03-04T07:02:20;99407.88;;;-1.70;100.00
16544;BME280;8384;47.996;7.786;2023-03-04T07:04:46;99406.53;;;-1.66;100.00
16544;BME280;8384;47.996;7.786;2023-03-04T07:07:11;99416.88;;;-1.96;100.00
16544;BME280;8384;47.996;7.786;2023-03-04T07:09:37;99419.72;;;-1.89;100.00
16544;BME280;8384;47.996;7.786;2023-03-04T07:12:02;99388.56;;;-1.90;100.00
16544;BME280;8384;47.996;7.786;2023-03-04T07:14:28;99426.16;;;-1.32;100.00
16544;BME280;8384;47.996;7.786;2023-03-04T07:16:53;99408.22;;;-1.31;98.96
16544;BME280;8384;47.996;7.786;2023-03-04T07:19:19;99409.22;;;-1.16;98.89
16544;BME280;8384;47.996;7.786;2023-03-04T07:21:44;99433.69;;;-1.02;98.99
16544;BME280;8384;47.996;7.786;2023-03-04T07:24:10;99433.00;;;-1.04;99.37
16544;BME280;8384;47.996;7.786;2023-03-04T07:26:36;99415.75;;;-1.10;98.65
16544;BME280;8384;47.996;7.786;2023-03-04T07:29:03;99440.25;;;-1.05;99.57
16544;BME280;8384;47.996;7.786;2023-03-04T07:31:31;99439.25;;;-1.04;100.00
16544;BME280;8384;47.996;7.786;2023-03-04T07:34:02;99429.50;;;-1.13;100.00
16544;BME280;8384;47.996;7.786;2023-03-04T07:36:28;99436.38;;;-0.86;100.00
16544;BME280;8384;47.996;7.786;2023-03-04T07:38:53;99434.66;;;-0.70;99.01
16544;BME280;8384;47.996;7.786;2023-03-04T07:41:20;99443.53;;;-0.62;99.03
16544;BME280;8384;47.996;7.786;2023-03-04T07:43:46;99449.72;;;-0.53;97.96
16544;BME280;8384;47.996;7.786;2023-03-04T07:46:11;99449.38;;;-0.50;98.01
16544;BME280;8384;47.996;7.786;2023-03-04T07:48:36;99453.84;;;-0.34;97.88
16544;BME280;8384;47.996;7.786;2023-03-04T07:51:09;99453.50;;;-0.22;95.38
16544;BME280;8384;47.996;7.786;2023-03-04T07:53:36;99459.56;;;-0.28;95.43
16544;BME280;8384;47.996;7.786;2023-03-04T07:56:03;99456.19;;;-0.31;94.94
16544;BME280;8384;47.996;7.786;2023-03-04T07:58:28;99462.97;;;-0.51;96.57
16544;BME280;8384;47.996;7.786;2023-03-04T08:00:53;99465.66;;;-0.43;96.66
16544;BME280;8384;47.996;7.786;2023-03-04T08:03:19;99474.41;;;-0.57;96.58
16544;BME280;8384;47.996;7.786;2023-03-04T08:05:44;99423.44;;;-0.82;97.49
16544;BME280;8384;47.996;7.786;2023-03-04T08:08:09;99466.69;;;-0.52;97.59
16544;BME280;8384;47.996;7.786;2023-03-04T08:10:35;99439.34;;;-0.72;97.32
16544;BME280;8384;47.996;7.786;2023-03-04T08:13:00;99465.38;;;-0.73;97.26
16544;BME280;8384;47.996;7.786;2023-03-04T08:15:26;99475.25;;;-0.65;98.39
16544;BME280;8384;47.996;7.786;2023-03-04T08:17:51;99471.09;;;-0.76;98.98
16544;BME280;8384;47.996;7.786;2023-03-04T08:20:17;99471.56;;;-0.72;99.84
16544;BME280;8384;47.996;7.786;2023-03-04T08:22:42;99459.19;;;-0.82;100.00
16544;BME280;8384;47.996;7.786;2023-03-04T08:25:08;99468.56;;;-0.69;99.78
16544;BME280;8384;47.996;7.786;2023-03-04T08:27:33;99454.31;;;-0.70;100.00
16544;BME280;8384;47.996;7.786;2023-03-04T08:29:58;99462.97;;;-0.51;99.39
16544;BME280;8384;47.996;7.786;2023-03-04T08:32:24;99457.25;;;-0.40;98.53
16544;BME280;8384;47.996;7.786;2023-03-04T08:34:49;99466.94;;;-0.31;99.82
16544;BME280;8384;47.996;7.786;2023-03-04T08:37:14;99465.53;;;-0.10;99.69
16544;BME280;8384;47.996;7.786;2023-03-04T08:39:40;99471.56;;;-0.08;97.72
16544;BME280;8384;47.996;7.786;2023-03-04T08:42:05;99477.09;;;-0.01;95.06
16544;BME280;8384;47.996;7.786;2023-03-04T08:44:30;99448.53;;;-0.42;96.48
16544;BME280;8384;47.996;7.786;2023-03-04T08:46:56;99438.16;;;-0.62;97.34
16544;BME280;8384;47.996;7.786;2023-03-04T08:49:21;99471.19;;;-0.53;97.94
16544;BME280;8384;47.996;7.786;2023-03-04T08:51:46;99480.78;;;-0.50;98.46
16544;BME280;8384;47.996;7.786;2023-03-04T08:54:11;99488.53;;;-0.72;99.50
16544;BME280;8384;47.996;7.786;2023-03-04T08:56:37;99469.75;;;-0.97;100.00
16544;BME280;8384;47.996;7.786;2023-03-04T08:59:02;99485.53;;;-0.94;100.00
16544;BME280;8384;47.996;7.786;2023-03-04T09:01:28;99461.53;;;-1.12;100.00
16544;BME280;8384;47.996;7.786;2023-03-04T09:03:53;99484.69;;;-0.94;100.00
16544;BME280;8384;47.996;7.786;2023-03-04T09:06:19;99484.69;;;-0.86;100.00
16544;BME280;8384;47.996;7.786;2023-03-04T09:08:45;99490.50;;;-0.57;100.00
16544;BME280;8384;47.996;7.786;2023-03-04T09:11:10;99479.28;;;-0.69;99.27
16544;BME280;8384;47.996;7.786;2023-03-04T09:13:36;99461.84;;;-0.65;99.40
16544;BME280;8384;47.996;7.786;2023-03-04T09:16:02;99495.53;;;-0.46;98.71
16544;BME280;8384;47.996;7.786;2023-03-04T09:18:27;99489.78;;;-0.35;98.35
16544;BME280;8384;47.996;7.786;2023-03-04T09:20:53;99480.91;;;-0.35;99.44
16544;BME280;8384;47.996;7.786;2023-03-04T09:23:19;99505.88;;;-0.18;100.00
16544;BME280;8384;47.996;7.786;2023-03-04T09:25:45;99474.97;;;-0.14;96.55
16544;BME280;8384;47.996;7.786;2023-03-04T09:28:12;99473.31;;;-0.32;95.48
16544;BME280;8384;47.996;7.786;2023-03-04T09:30:38;99495.00;;;-0.33;97.36
16544;BME280;8384;47.996;7.786;2023-03-04T09:33:03;99504.25;;;-0.44;98.50
16544;BME280;8384;47.996;7.786;2023-03-04T09:35:28;99471.03;;;-0.59;97.87
16544;BME280;8384;47.996;7.786;2023-03-04T09:37:54;99493.53;;;-0.44;98.28
16544;BME280;8384;47.996;7.786;2023-03-04T09:40:23;99495.34;;;-0.44;98.63
16544;BME280;8384;47.996;7.786;2023-03-04T09:42:53;99501.25;;;-0.41;98.40
16544;BME280;8384;47.996;7.786;2023-03-04T09:45:22;99488.84;;;-0.58;99.06
16544;BME280;8384;47.996;7.786;2023-03-04T09:47:51;99473.88;;;-0.53;98.41
16544;BME280;8384;47.996;7.786;2023-03-04T09:50:18;99492.03;;;-0.55;99.79
16544;BME280;8384;47.996;7.786;2023-03-04T09:55:39;99496.41;;;-0.54;99.21
16544;BME280;8384;47.996;7.786;2023-03-04T10:01:06;99492.66;;;-0.36;96.60
16544;BME280;8384;47.996;7.786;2023-03-04T10:03:56;99477.59;;;-0.70;97.84
16544;BME280;8384;47.996;7.786;2023-03-04T10:06:23;99471.91;;;-0.76;98.74
16544;BME280;8384;47.996;7.786;2023-03-04T10:11:19;99493.72;;;0.03;97.63
16544;BME280;8384;47.996;7.786;2023-03-04T10:16:20;99476.47;;;-0.11;95.53
16544;BME280;8384;47.996;7.786;2023-03-04T10:21:41;99480.06;;;0.44;96.10
16544;BME280;8384;47.996;7.786;2023-03-04T10:24:11;99472.47;;;0.48;94.31
16544;BME280;8384;47.996;7.786;2023-03-04T10:26:37;99487.75;;;0.79;91.80
16544;BME280;8384;47.996;7.786;2023-03-04T10:29:03;99441.28;;;0.62;92.66
16544;BME280;8384;47.996;7.786;2023-03-04T10:31:36;99461.56;;;1.11;90.11
16544;BME280;8384;47.996;7.786;2023-03-04T10:34:05;99492.94;;;1.42;87.95
16544;BME280;8384;47.996;7.786;2023-03-04T10:39:04;99487.66;;;1.10;88.28
16544;BME280;8384;47.996;7.786;2023-03-04T10:41:31;99464.00;;;0.82;89.32
16544;BME280;8384;47.996;7.786;2023-03-04T10:46:38;99475.47;;;1.38;88.81
16544;BME280;8384;47.996;7.786;2023-03-04T10:49:03;99471.84;;;1.75;86.71
16544;BME280;8384;47.996;7.786;2023-03-04T10:51:29;99482.09;;;1.95;85.67
16544;BME280;8384;47.996;7.786;2023-03-04T10:54:04;99485.06;;;2.00;83.93
16544;BME280;8384;47.996;7.786;2023-03-04T10:56:35;99487.50;;;1.95;82.99
16544;BME280;8384;47.996;7.786;2023-03-04T11:02:05;99474.81;;;2.10;85.28
16544;BME280;8384;47.996;7.786;2023-03-04T11:04:35;99461.97;;;2.28;80.91
16544;BME280;8384;47.996;7.786;2023-03-04T11:07:00;99469.50;;;2.54;81.85
16544;BME280;8384;47.996;7.786;2023-03-04T11:09:28;99475.06;;;2.89;79.11
16544;BME280;8384;47.996;7.786;2023-03-04T11:11:54;99475.44;;;2.64;79.85
16544;BME280;8384;47.996;7.786;2023-03-04T11:14:45;99473.44;;;2.73;80.56
16544;BME280;8384;47.996;7.786;2023-03-04T11:17:20;99467.47;;;3.21;79.55
16544;BME280;8384;47.996;7.786;2023-03-04T11:19:51;99459.19;;;3.58;77.79
16544;BME280;8384;47.996;7.786;2023-03-04T11:22:20;99443.41;;;3.97;74.96
16544;BME280;8384;47.996;7.786;2023-03-04T11:24:54;99464.69;;;4.75;72.96
16544;BME280;8384;47.996;7.786;2023-03-04T11:27:25;99443.88;;;5.03;69.63
16544;BME280;8384;47.996;7.786;2023-03-04T11:30:18;99458.66;;;5.34;66.42
16544;BME280;8384;47.996;7.786;2023-03-04T11:32:50;99449.28;;;4.96;67.66
16544;BME280;8384;47.996;7.786;2023-03-04T11:35:24;99440.94;;;5.11;67.95
16544;BME280;8384;47.996;7.786;2023-03-04T11:38:18;99439.06;;;5.25;67.57
16544;BME280;8384;47.996;7.786;2023-03-04T11:40:56;99440.91;;;5.58;66.56
16544;BME280;8384;47.996;7.786;2023-03-04T11:43:37;99437.56;;;5.63;65.78
16544;BME280;8384;47.996;7.786;2023-03-04T11:48:51;99430.94;;;4.98;67.43
16544;BME280;8384;47.996;7.786;2023-03-04T11:54:34;99420.53;;;4.88;70.37
16544;BME280;8384;47.996;7.786;2023-03-04T11:57:14;99416.53;;;5.51;67.07
16544;BME280;8384;47.996;7.786;2023-03-04T12:02:50;99408.88;;;5.15;66.33
16544;BME280;8384;47.996;7.786;2023-03-04T12:05:26;99402.38;;;4.62;69.00
16544;BME280;8384;47.996;7.786;2023-03-04T12:08:07;99408.00;;;4.54;68.99
16544;BME280;8384;47.996;7.786;2023-03-04T12:14:01;99393.22;;;4.63;69.45
16544;BME280;8384;47.996;7.786;2023-03-04T12:19:07;99386.09;;;5.43;67.62
16544;BME280;8384;47.996;7.786;2023-03-04T12:24:28;99370.41;;;5.58;66.35
16544;BME280;8384;47.996;7.786;2023-03-04T12:27:14;99372.19;;;6.37;64.03
16544;BME280;8384;47.996;7.786;2023-03-04T12:29:56;99358.63;;;5.84;64.62
16544;BME280;8384;47.996;7.786;2023-03-04T12:35:13;99357.16;;;6.92;61.88
16544;BME280;8384;47.996;7.786;2023-03-04T12:43:14;99329.84;;;8.29;55.41
16544;BME280;8384;47.996;7.786;2023-03-04T12:46:10;99354.03;;;8.67;54.44
16544;BME280;8384;47.996;7.786;2023-03-04T12:54:47;99335.56;;;9.17;52.08
16544;BME280;8384;47.996;7.786;2023-03-04T12:56:52;99334.75;;;8.93;52.28
16544;BME280;8384;47.996;7.786;2023-03-04T12:59:20;99302.16;;;9.10;52.81
16544;BME280;8384;47.996;7.786;2023-03-04T13:02:09;99324.91;;;9.04;51.16
16544;BME280;8384;47.996;7.786;2023-03-04T13:04:56;99309.28;;;9.11;52.12
16544;BME280;8384;47.996;7.786;2023-03-04T13:10:18;99303.63;;;9.53;51.11
16544;BME280;8384;47.996;7.786;2023-03-04T13:12:53;99301.81;;;9.71;50.82
16544;BME280;8384;47.996;7.786;2023-03-04T13:17:52;99291.19;;;10.61;48.54
16544;BME280;8384;47.996;7.786;2023-03-04T13:22:48;99301.66;;;10.35;48.16
16544;BME280;8384;47.996;7.786;2023-03-04T13:32:56;99253.06;;;10.89;45.67
16544;BME280;8384;47.996;7.786;2023-03-04T13:38:22;99289.44;;;11.46;45.21
16544;BME280;8384;47.996;7.786;2023-03-04T13:43:48;99290.19;;;11.63;45.05
16544;BME280;8384;47.996;7.786;2023-03-04T13:48:43;99277.56;;;11.40;43.80
16544;BME280;8384;47.996;7.786;2023-03-04T13:51:15;99272.31;;;11.16;41.79
16544;BME280;8384;47.996;7.786;2023-03-04T13:53:49;99273.97;;;10.61;41.89
16544;BME280;8384;47.996;7.786;2023-03-04T13:56:37;99272.28;;;10.43;43.43
16544;BME280;8384;47.996;7.786;2023-03-04T14:01:34;99261.13;;;8.57;46.65
16544;BME280;8384;47.996;7.786;2023-03-04T14:04:09;99235.31;;;8.05;48.33
16544;BME280;8384;47.996;7.786;2023-03-04T14:06:41;99245.03;;;8.13;48.09
16544;BME280;8384;47.996;7.786;2023-03-04T14:09:15;99257.69;;;8.74;48.14
16544;BME280;8384;47.996;7.786;2023-03-04T14:11:41;99248.97;;;9.36;45.32
16544;BME280;8384;47.996;7.786;2023-03-04T14:14:12;99227.22;;;8.41;46.64
16544;BME280;8384;47.996;7.786;2023-03-04T14:16:40;99244.28;;;8.48;47.08
16544;BME280;8384;47.996;7.786;2023-03-04T14:19:37;99246.16;;;8.48;47.33
16544;BME280;8384;47.996;7.786;2023-03-04T14:22:24;99244.84;;;8.38;45.62
16544;BME280;8384;47.996;7.786;2023-03-04T14:25:04;99241.59;;;8.60;46.57
16544;BME280;8384;47.996;7.786;2023-03-04T14:27:33;99234.97;;;8.68;46.48
16544;BME280;8384;47.996;7.786;2023-03-04T14:30:03;99234.34;;;8.78;45.09
16544;BME280;8384;47.996;7.786;2023-03-04T14:32:29;99233.97;;;9.22;43.43